TFM - Tactical Decision Aid (Experimental) INFO Settings
ID: Runway Winds: CIG/VIS Threshold: METAR Board: Map:

KCLT - Charlotte-Douglas Intl

Updated at: 2135 UTC 25 Mar 2017
Latest TAF at: 2056 UTC 25 Mar 2017

TAF Board

Time2052Z25/22Z25/23Z26/00Z26/01Z26/02Z26/03Z26/04Z26/05Z26/06Z26/07Z26/08Z26/09Z26/10Z
TypeOBSPRVLPRVLPRVLPRVLPRVLPRVLPRVLPRVLPRVLPRVLPRVLPRVLPRVL
VIS10>6>6>6>6>6>6>6>6>6>6>6>6>6
CIG6060606060----------------20
CoverBKNBKNBKNBKNBKNSCTSCTSCTSCTSCTSCTSCTSCTBKN
FltCatVFRVFRVFRVFRVFRVFRVFRVFRVFRVFRVFRVFRVFRMVFR
WX----------------------------
WDir200190190190190150150150150150150150150160
WSpd139999444444445
WGst----------------------------
TAF
KCLT 252056Z 2521/2618 19009KT P6SM BKN060 BKN250
  FM260200 15004KT P6SM SCT050
  FM261000 16005KT P6SM BKN020
  PROB30 2612/2614 2SM -SHRA OVC007
  FM261600 17009KT P6SM VCSH BKN020


METAR
KCLT 252052Z 20013KT 10SM BKN060 BKN250 24/08 A3020 RMK AO2 SLP220 T02390083 58027

TAF/METAR Board Legend

Potential Impact
  None Marginal Slight Moderate High
Visibility (sm) >5 3≤X≤5 1≤X<3 0.5≤X<1 <0.5
Ceiling (100 ft) >30 10≤X≤30 4≤X<10 2≤X<4 <2
Wind Speed (kt) <10 10≤X<20 20≤X<30 ≥30
Wind Gust (kt) <15 15≤X<25 25≤X<35 ≥35
Weather No Wx Reported VCTS -TS,-FZRA TS,FZRA +TS,+FZRA



Page loaded:  21:35 UTC  |   02:35 PM Pacific  |   03:35 PM Mountain  |   04:35 PM Central  |   05:35 PM Eastern

 

ADVISORIES

FORECASTS

FORECASTS

OBSERVATIONS

USER TOOLS

ABOUT US